createdAt,value
2018-12-03T00:00:00.205Z,948.30413
2018-12-03T00:00:06.901Z,948.31195
2018-12-03T00:00:13.624Z,948.28338
2018-12-03T00:00:20.331Z,948.27795
2018-12-03T00:00:27.067Z,948.33703
2018-12-03T00:00:33.770Z,948.29235
2018-12-03T00:00:40.432Z,948.28796
2018-12-03T00:00:47.202Z,948.3067
2018-12-03T00:00:53.926Z,948.29595
2018-12-03T00:01:00.627Z,948.3153
2018-12-03T00:01:07.329Z,948.3067
2018-12-03T00:01:14.108Z,948.30096
2018-12-03T00:01:21.817Z,948.30346
2018-12-03T00:01:28.485Z,948.30889
2018-12-03T00:01:35.311Z,948.31213
2018-12-03T00:01:42.026Z,948.33013
2018-12-03T00:01:48.732Z,948.31842
2018-12-03T00:01:55.411Z,948.25512
2018-12-03T00:02:02.150Z,948.26904
2018-12-03T00:02:08.861Z,948.24981
2018-12-03T00:02:15.576Z,948.28179
2018-12-03T00:02:23.009Z,948.28497
2018-12-03T00:02:29.722Z,948.28656
2018-12-03T00:02:37.474Z,948.2658
2018-12-03T00:02:44.200Z,948.30572
2018-12-03T00:02:50.881Z,948.27545
2018-12-03T00:02:57.642Z,948.28656
2018-12-03T00:03:04.357Z,948.27478
2018-12-03T00:03:11.077Z,948.29296
2018-12-03T00:03:17.834Z,948.27703
2018-12-03T00:03:24.559Z,948.30249
2018-12-03T00:03:31.343Z,948.30297
2018-12-03T00:03:38.094Z,948.27429
2018-12-03T00:03:44.841Z,948.28234
2018-12-03T00:03:51.551Z,948.27111
2018-12-03T00:03:58.263Z,948.29779
2018-12-03T00:04:04.915Z,948.2517
2018-12-03T00:04:11.636Z,948.2492
2018-12-03T00:04:18.366Z,948.25885
2018-12-03T00:04:25.102Z,948.27954
2018-12-03T00:04:31.857Z,948.2561
2018-12-03T00:04:38.545Z,948.28064
2018-12-03T00:04:45.280Z,948.24609
2018-12-03T00:04:51.957Z,948.2647
2018-12-03T00:04:58.678Z,948.27221
2018-12-03T00:05:05.369Z,948.2647
2018-12-03T00:05:12.062Z,948.24609
2018-12-03T00:05:18.780Z,948.26635
2018-12-03T00:05:25.524Z,948.31091
2018-12-03T00:05:32.275Z,948.28595
2018-12-03T00:05:38.953Z,948.24438
2018-12-03T00:05:45.651Z,948.26403
2018-12-03T00:05:53.420Z,948.30889
2018-12-03T00:06:00.095Z,948.31939
2018-12-03T00:06:07.823Z,948.32733
2018-12-03T00:06:14.598Z,948.32012
2018-12-03T00:06:21.394Z,948.29821
2018-12-03T00:06:28.106Z,948.3222
2018-12-03T00:06:34.916Z,948.31146
2018-12-03T00:06:42.577Z,948.32946
2018-12-03T00:06:49.403Z,948.34173
2018-12-03T00:06:56.099Z,948.33703
2018-12-03T00:07:02.778Z,948.33062
2018-12-03T00:07:09.521Z,948.31146
2018-12-03T00:07:16.186Z,948.32373
2018-12-03T00:07:22.886Z,948.33221
2018-12-03T00:07:30.574Z,948.3258
2018-12-03T00:07:37.218Z,948.37164
2018-12-03T00:07:44.002Z,948.33703
2018-12-03T00:07:50.719Z,948.32733
2018-12-03T00:07:57.420Z,948.3338
2018-12-03T00:08:04.177Z,948.37048
2018-12-03T00:08:10.869Z,948.34338
2018-12-03T00:08:17.541Z,948.39984
2018-12-03T00:08:24.333Z,948.37481
2018-12-03T00:08:31.064Z,948.40142
2018-12-03T00:08:37.749Z,948.37481
2018-12-03T00:08:44.404Z,948.36523
2018-12-03T00:08:51.132Z,948.37915
2018-12-03T00:08:57.907Z,948.38439
2018-12-03T00:09:05.635Z,948.39825
2018-12-03T00:09:12.326Z,948.41424
2018-12-03T00:09:19.085Z,948.39508
2018-12-03T00:09:26.861Z,948.39434
2018-12-03T00:09:33.562Z,948.40313
2018-12-03T00:09:40.258Z,948.41577
2018-12-03T00:09:46.937Z,948.40765
2018-12-03T00:09:53.611Z,948.40033
2018-12-03T00:10:00.315Z,948.38867
2018-12-03T00:10:07.125Z,948.42517
2018-12-03T00:10:13.801Z,948.44866
2018-12-03T00:10:20.546Z,948.41741
2018-12-03T00:10:27.884Z,948.42157
2018-12-03T00:10:34.579Z,948.38232
2018-12-03T00:10:41.413Z,948.40466
2018-12-03T00:10:48.071Z,948.40564
2018-12-03T00:10:55.783Z,948.38696
2018-12-03T00:11:02.518Z,948.40875
2018-12-03T00:11:09.265Z,948.44134
2018-12-03T00:11:15.931Z,948.43658
2018-12-03T00:11:22.629Z,948.43908
2018-12-03T00:11:29.366Z,948.427
2018-12-03T00:11:36.075Z,948.44299
2018-12-03T00:11:42.804Z,948.46209
2018-12-03T00:11:49.525Z,948.42266
2018-12-03T00:11:56.201Z,948.43109
2018-12-03T00:12:02.882Z,948.46734
2018-12-03T00:12:09.621Z,948.4414
2018-12-03T00:12:16.857Z,948.42858
2018-12-03T00:12:23.517Z,948.42492
2018-12-03T00:12:30.199Z,948.40356
2018-12-03T00:12:36.891Z,948.4707
2018-12-03T00:12:43.556Z,948.43823
2018-12-03T00:12:50.342Z,948.47125
2018-12-03T00:12:57.012Z,948.47436
2018-12-03T00:13:03.778Z,948.45404
2018-12-03T00:13:10.524Z,948.48437
2018-12-03T00:13:17.374Z,948.50268
2018-12-03T00:13:24.065Z,948.46484
2018-12-03T00:13:30.822Z,948.47283
2018-12-03T00:13:37.514Z,948.46752
2018-12-03T00:13:44.245Z,948.4931
2018-12-03T00:13:50.896Z,948.47717
2018-12-03T00:13:57.625Z,948.46283
2018-12-03T00:14:04.375Z,948.45892
2018-12-03T00:14:11.037Z,948.44311
2018-12-03T00:14:17.764Z,948.45593
2018-12-03T00:14:24.400Z,948.47717
2018-12-03T00:14:31.101Z,948.46283
2018-12-03T00:14:37.842Z,948.4085
2018-12-03T00:14:44.543Z,948.43786
2018-12-03T00:14:51.240Z,948.42028
2018-12-03T00:14:57.998Z,948.46502
2018-12-03T00:15:04.662Z,948.4953
2018-12-03T00:15:11.373Z,948.43145
2018-12-03T00:15:18.020Z,948.42077
2018-12-03T00:15:24.719Z,948.45794
2018-12-03T00:15:31.465Z,948.44677
2018-12-03T00:15:39.158Z,948.45752
2018-12-03T00:15:45.852Z,948.45428
2018-12-03T00:15:52.548Z,948.44891
2018-12-03T00:15:59.195Z,948.45111
2018-12-03T00:16:05.859Z,948.47033
2018-12-03T00:16:12.513Z,948.4436
2018-12-03T00:16:19.213Z,948.44421
2018-12-03T00:16:26.924Z,948.4367
2018-12-03T00:16:34.603Z,948.4746
2018-12-03T00:16:41.310Z,948.43408
2018-12-03T00:16:48.987Z,948.44592
2018-12-03T00:16:55.719Z,948.45001
2018-12-03T00:17:02.473Z,948.45001
2018-12-03T00:17:09.171Z,948.42608
2018-12-03T00:17:15.901Z,948.43286
2018-12-03T00:17:22.618Z,948.42279
2018-12-03T00:17:29.392Z,948.42669
2018-12-03T00:17:36.139Z,948.42126
2018-12-03T00:17:42.870Z,948.41375
2018-12-03T00:17:49.624Z,948.42993
2018-12-03T00:17:56.319Z,948.48889
2018-12-03T00:18:03.029Z,948.48889
2018-12-03T00:18:09.759Z,948.44842
2018-12-03T00:18:16.452Z,948.44201
2018-12-03T00:18:23.175Z,948.47186
2018-12-03T00:18:29.856Z,948.43249
2018-12-03T00:18:36.567Z,948.43408
2018-12-03T00:18:43.285Z,948.40594
2018-12-03T00:18:50.010Z,948.432
2018-12-03T00:18:56.732Z,948.45251
2018-12-03T00:19:03.405Z,948.42279
2018-12-03T00:19:10.135Z,948.42236
2018-12-03T00:19:16.816Z,948.41815
2018-12-03T00:19:23.555Z,948.42608
2018-12-03T00:19:31.272Z,948.4436
2018-12-03T00:19:37.947Z,948.42767
2018-12-03T00:19:44.599Z,948.41815
2018-12-03T00:19:51.288Z,948.40216
2018-12-03T00:19:57.964Z,948.39422
2018-12-03T00:20:04.660Z,948.375
2018-12-03T00:20:11.360Z,948.39892
2018-12-03T00:20:18.062Z,948.42559
2018-12-03T00:20:24.793Z,948.4085
2018-12-03T00:20:31.464Z,948.37591
2018-12-03T00:20:38.238Z,948.36499
2018-12-03T00:20:44.996Z,948.40484
2018-12-03T00:20:51.782Z,948.37701
2018-12-03T00:20:58.483Z,948.43469
2018-12-03T00:21:05.233Z,948.37817
2018-12-03T00:21:12.026Z,948.37591
2018-12-03T00:21:19.783Z,948.40686
2018-12-03T00:21:27.580Z,948.36218
2018-12-03T00:21:34.343Z,948.3681
2018-12-03T00:21:41.046Z,948.37866
2018-12-03T00:21:47.747Z,948.42193
2018-12-03T00:21:54.466Z,948.38775
2018-12-03T00:22:01.158Z,948.39367
2018-12-03T00:22:07.869Z,948.36108
2018-12-03T00:22:14.570Z,948.36059
2018-12-03T00:22:21.318Z,948.38775
2018-12-03T00:22:28.001Z,948.37341
2018-12-03T00:22:34.719Z,948.34954
2018-12-03T00:22:41.432Z,948.37939
2018-12-03T00:22:48.125Z,948.375
2018-12-03T00:22:54.836Z,948.36059
2018-12-03T00:23:01.572Z,948.36157
2018-12-03T00:23:08.387Z,948.42456
2018-12-03T00:23:15.057Z,948.40899
2018-12-03T00:23:21.768Z,948.3695
2018-12-03T00:23:29.415Z,948.38775
2018-12-03T00:23:36.140Z,948.375
2018-12-03T00:23:42.863Z,948.39624
2018-12-03T00:23:49.586Z,948.38024
2018-12-03T00:23:56.328Z,948.38342
2018-12-03T00:24:03.032Z,948.36737
2018-12-03T00:24:09.762Z,948.37072
2018-12-03T00:24:16.474Z,948.42767
2018-12-03T00:24:23.192Z,948.41284
2018-12-03T00:24:29.865Z,948.38671
2018-12-03T00:24:37.555Z,948.39532
2018-12-03T00:24:44.255Z,948.42218
2018-12-03T00:24:50.984Z,948.40173
2018-12-03T00:24:57.713Z,948.42767
2018-12-03T00:25:05.012Z,948.38775
2018-12-03T00:25:11.724Z,948.37658
2018-12-03T00:25:18.491Z,948.38775
2018-12-03T00:25:25.172Z,948.39367
2018-12-03T00:25:31.887Z,948.38983
2018-12-03T00:25:39.362Z,948.43408
2018-12-03T00:25:46.105Z,948.41174
2018-12-03T00:25:52.819Z,948.37225
2018-12-03T00:25:59.561Z,948.39483
2018-12-03T00:26:06.239Z,948.40911
2018-12-03T00:26:12.926Z,948.40283
2018-12-03T00:26:19.634Z,948.41766
2018-12-03T00:26:26.408Z,948.38092
2018-12-03T00:26:33.147Z,948.38775
2018-12-03T00:26:39.909Z,948.39483
2018-12-03T00:26:46.675Z,948.40911
2018-12-03T00:26:53.406Z,948.38616
2018-12-03T00:27:01.089Z,948.42352
2018-12-03T00:27:07.806Z,948.39642
2018-12-03T00:27:14.529Z,948.39733
2018-12-03T00:27:21.250Z,948.41564
2018-12-03T00:27:27.939Z,948.40533
2018-12-03T00:27:34.672Z,948.43133
2018-12-03T00:27:41.410Z,948.41387
2018-12-03T00:27:48.090Z,948.39166
2018-12-03T00:27:54.884Z,948.41601
2018-12-03T00:28:02.697Z,948.40325
2018-12-03T00:28:09.406Z,948.40759
2018-12-03T00:28:16.069Z,948.42193
2018-12-03T00:28:23.834Z,948.43469
2018-12-03T00:28:30.540Z,948.40911
2018-12-03T00:28:37.293Z,948.42077
2018-12-03T00:28:44.027Z,948.41235
2018-12-03T00:28:51.699Z,948.41491
2018-12-03T00:28:58.455Z,948.44201
2018-12-03T00:29:05.166Z,948.41857
2018-12-03T00:29:11.869Z,948.40911
2018-12-03T00:29:18.572Z,948.41876
2018-12-03T00:29:25.256Z,948.43768
2018-12-03T00:29:31.954Z,948.45532
2018-12-03T00:29:38.699Z,948.45153
2018-12-03T00:29:45.453Z,948.4411
2018-12-03T00:29:53.185Z,948.44903
2018-12-03T00:29:59.928Z,948.42669
2018-12-03T00:30:06.639Z,948.4165
2018-12-03T00:30:13.313Z,948.4085
2018-12-03T00:30:20.039Z,948.42657
2018-12-03T00:30:26.729Z,948.42559
2018-12-03T00:30:33.433Z,948.37725
2018-12-03T00:30:40.188Z,948.36914
2018-12-03T00:30:46.857Z,948.39575
2018-12-03T00:30:54.574Z,948.39141
2018-12-03T00:31:02.357Z,948.37249
2018-12-03T00:31:09.129Z,948.39532
2018-12-03T00:31:16.882Z,948.3543
2018-12-03T00:31:23.602Z,948.40533
2018-12-03T00:31:30.336Z,948.36859
2018-12-03T00:31:37.066Z,948.40264
2018-12-03T00:31:43.773Z,948.37561
2018-12-03T00:31:50.493Z,948.39306
2018-12-03T00:31:58.239Z,948.35656
2018-12-03T00:32:05.072Z,948.34997
2018-12-03T00:32:11.792Z,948.31665
2018-12-03T00:32:19.541Z,948.32458
2018-12-03T00:32:28.282Z,948.34692
2018-12-03T00:32:35.034Z,948.34265
2018-12-03T00:32:41.737Z,948.35064
2018-12-03T00:32:48.454Z,948.36438
2018-12-03T00:32:55.114Z,948.30114
2018-12-03T00:33:01.814Z,948.34533
2018-12-03T00:33:08.539Z,948.307
2018-12-03T00:33:15.279Z,948.31189
2018-12-03T00:33:22.030Z,948.3059
2018-12-03T00:33:28.778Z,948.31231
2018-12-03T00:33:35.497Z,948.33898
2018-12-03T00:33:42.191Z,948.34735
2018-12-03T00:33:48.881Z,948.34375
2018-12-03T00:33:55.631Z,948.35327
2018-12-03T00:34:02.367Z,948.34576
2018-12-03T00:34:09.137Z,948.33984
2018-12-03T00:34:15.876Z,948.34155
2018-12-03T00:34:22.575Z,948.33032
2018-12-03T00:34:29.335Z,948.29846
2018-12-03T00:34:36.053Z,948.31921
2018-12-03T00:34:42.815Z,948.29205
2018-12-03T00:34:49.489Z,948.3244
2018-12-03T00:34:56.207Z,948.33349
2018-12-03T00:35:02.944Z,948.35107
2018-12-03T00:35:09.648Z,948.39532
2018-12-03T00:35:16.435Z,948.35742
2018-12-03T00:35:23.206Z,948.32971
2018-12-03T00:35:29.863Z,948.35742
2018-12-03T00:35:36.590Z,948.37548
2018-12-03T00:35:43.276Z,948.3164
2018-12-03T00:35:49.979Z,948.32763
2018-12-03T00:35:56.679Z,948.33514
2018-12-03T00:36:03.424Z,948.3244
2018-12-03T00:36:10.212Z,948.32971
2018-12-03T00:36:16.841Z,948.29071
2018-12-03T00:36:23.602Z,948.29937
2018-12-03T00:36:30.294Z,948.29614
2018-12-03T00:36:37.010Z,948.34716
2018-12-03T00:36:43.716Z,948.30938
2018-12-03T00:36:50.440Z,948.32482
2018-12-03T00:36:57.201Z,948.3695
2018-12-03T00:37:03.897Z,948.37225
2018-12-03T00:37:10.578Z,948.33288
2018-12-03T00:37:17.255Z,948.30139
2018-12-03T00:37:24.005Z,948.30889
2018-12-03T00:37:30.659Z,948.29388
2018-12-03T00:37:37.401Z,948.33654
2018-12-03T00:37:44.083Z,948.34198
2018-12-03T00:37:50.739Z,948.3413
2018-12-03T00:37:57.454Z,948.32904
2018-12-03T00:38:04.186Z,948.33612
2018-12-03T00:38:10.904Z,948.32373
2018-12-03T00:38:17.535Z,948.28118
2018-12-03T00:38:24.261Z,948.31732
2018-12-03T00:38:30.983Z,948.31689
2018-12-03T00:38:37.685Z,948.33966
2018-12-03T00:38:44.374Z,948.32739
2018-12-03T00:38:52.084Z,948.33447
2018-12-03T00:38:58.851Z,948.34497
2018-12-03T00:39:06.600Z,948.35406
2018-12-03T00:39:13.357Z,948.3338
2018-12-03T00:39:21.094Z,948.3222
2018-12-03T00:39:27.812Z,948.34014
2018-12-03T00:39:35.305Z,948.32263
2018-12-03T00:39:42.053Z,948.29235
2018-12-03T00:39:48.786Z,948.33111
2018-12-03T00:39:56.527Z,948.33538
2018-12-03T00:40:03.234Z,948.32104
2018-12-03T00:40:09.967Z,948.33599
2018-12-03T00:40:16.667Z,948.35357
2018-12-03T00:40:23.366Z,948.39032
2018-12-03T00:40:30.053Z,948.34814
2018-12-03T00:40:36.739Z,948.37365
2018-12-03T00:40:43.467Z,948.38232
2018-12-03T00:40:51.168Z,948.37109
2018-12-03T00:40:57.871Z,948.34014
2018-12-03T00:41:04.560Z,948.35607
2018-12-03T00:41:11.308Z,948.34454
2018-12-03T00:41:17.974Z,948.37841
2018-12-03T00:41:24.666Z,948.35772
2018-12-03T00:41:31.386Z,948.38592
2018-12-03T00:41:38.158Z,948.36407
2018-12-03T00:41:44.907Z,948.35022
2018-12-03T00:41:51.565Z,948.32904
2018-12-03T00:41:58.321Z,948.38751
2018-12-03T00:42:05.073Z,948.35974
2018-12-03T00:42:11.812Z,948.36547
2018-12-03T00:42:18.524Z,948.37841
2018-12-03T00:42:25.187Z,948.37506
2018-12-03T00:42:31.876Z,948.39331
2018-12-03T00:42:38.559Z,948.37829
2018-12-03T00:42:45.316Z,948.38806
2018-12-03T00:42:51.964Z,948.3858
2018-12-03T00:42:58.644Z,948.37939
2018-12-03T00:43:05.425Z,948.37841
2018-12-03T00:43:12.167Z,948.39282
2018-12-03T00:43:18.897Z,948.35705
2018-12-03T00:43:25.585Z,948.35229
2018-12-03T00:43:33.236Z,948.31811
2018-12-03T00:43:39.946Z,948.32153
2018-12-03T00:43:46.662Z,948.32885
2018-12-03T00:43:53.329Z,948.36987
2018-12-03T00:44:00.073Z,948.35278
2018-12-03T00:44:06.770Z,948.33404
2018-12-03T00:44:13.416Z,948.39111
2018-12-03T00:44:20.122Z,948.42132
2018-12-03T00:44:26.826Z,948.35382
2018-12-03T00:44:33.608Z,948.38092
2018-12-03T00:44:40.326Z,948.35388
2018-12-03T00:44:47.001Z,948.34906
2018-12-03T00:44:53.749Z,948.33404
2018-12-03T00:45:00.429Z,948.37689
2018-12-03T00:45:07.116Z,948.3703
2018-12-03T00:45:13.849Z,948.3363
2018-12-03T00:45:20.594Z,948.3692
2018-12-03T00:45:28.367Z,948.3814
2018-12-03T00:45:35.143Z,948.36865
2018-12-03T00:45:42.821Z,948.29162
2018-12-03T00:45:49.605Z,948.32135
2018-12-03T00:45:56.365Z,948.35797
2018-12-03T00:46:04.126Z,948.37341
2018-12-03T00:46:10.847Z,948.35321
2018-12-03T00:46:18.574Z,948.37872
2018-12-03T00:46:26.281Z,948.37231
2018-12-03T00:46:34.007Z,948.36029
2018-12-03T00:46:41.668Z,948.3703
2018-12-03T00:46:48.401Z,948.39422
2018-12-03T00:46:55.297Z,948.35046
2018-12-03T00:47:03.040Z,948.37603
2018-12-03T00:47:10.832Z,948.40264
2018-12-03T00:47:17.542Z,948.33795
2018-12-03T00:47:24.280Z,948.36663
2018-12-03T00:47:30.963Z,948.37616
2018-12-03T00:47:37.719Z,948.35321
2018-12-03T00:47:44.471Z,948.34295
2018-12-03T00:47:51.178Z,948.30169
2018-12-03T00:47:57.909Z,948.29779
2018-12-03T00:48:04.676Z,948.30377
2018-12-03T00:48:11.388Z,948.3197
2018-12-03T00:48:19.067Z,948.31604
2018-12-03T00:48:26.746Z,948.33203
2018-12-03T00:48:33.509Z,948.31695
2018-12-03T00:48:40.259Z,948.2871
2018-12-03T00:48:47.038Z,948.33026
2018-12-03T00:48:53.773Z,948.30999
2018-12-03T00:49:00.518Z,948.29516
2018-12-03T00:49:07.205Z,948.34143
2018-12-03T00:49:13.947Z,948.31579
2018-12-03T00:49:20.697Z,948.294
2018-12-03T00:49:27.437Z,948.2796
2018-12-03T00:49:34.169Z,948.28076
2018-12-03T00:49:40.879Z,948.25073
2018-12-03T00:49:47.635Z,948.25939
2018-12-03T00:49:54.403Z,948.24237
2018-12-03T00:50:01.154Z,948.19171
2018-12-03T00:50:07.880Z,948.28967
2018-12-03T00:50:14.579Z,948.23797
2018-12-03T00:50:21.254Z,948.28216
2018-12-03T00:50:27.967Z,948.29492
2018-12-03T00:50:34.698Z,948.28741
2018-12-03T00:50:41.378Z,948.27307
2018-12-03T00:50:48.110Z,948.25189
2018-12-03T00:50:54.785Z,948.26831
2018-12-03T00:51:01.509Z,948.25775
2018-12-03T00:51:08.231Z,948.2481
2018-12-03T00:51:14.999Z,948.24609
2018-12-03T00:51:21.694Z,948.27142
2018-12-03T00:51:28.405Z,948.25891
2018-12-03T00:51:35.239Z,948.25408
2018-12-03T00:51:41.932Z,948.26251
2018-12-03T00:51:48.655Z,948.27893
2018-12-03T00:51:55.403Z,948.28485
2018-12-03T00:52:02.118Z,948.23907
2018-12-03T00:52:08.941Z,948.23632
2018-12-03T00:52:15.607Z,948.247
2018-12-03T00:52:22.294Z,948.29809
2018-12-03T00:52:29.028Z,948.27459
2018-12-03T00:52:35.775Z,948.32312
2018-12-03T00:52:42.549Z,948.26452
2018-12-03T00:52:49.218Z,948.25317
2018-12-03T00:52:55.945Z,948.28826
2018-12-03T00:53:02.661Z,948.26647
2018-12-03T00:53:09.409Z,948.25116
2018-12-03T00:53:16.151Z,948.3139
2018-12-03T00:53:22.882Z,948.30267
2018-12-03T00:53:29.597Z,948.29467
2018-12-03T00:53:36.288Z,948.32189
2018-12-03T00:53:42.937Z,948.31109
2018-12-03T00:53:49.622Z,948.35485
2018-12-03T00:53:56.380Z,948.32281
2018-12-03T00:54:03.167Z,948.32916
2018-12-03T00:54:09.886Z,948.33508
2018-12-03T00:54:16.604Z,948.36419
2018-12-03T00:54:23.305Z,948.33618
2018-12-03T00:54:30.045Z,948.3446
2018-12-03T00:54:36.782Z,948.34252
2018-12-03T00:54:43.505Z,948.35687
2018-12-03T00:54:50.263Z,948.3706
2018-12-03T00:54:56.969Z,948.38085
2018-12-03T00:55:03.675Z,948.41369
2018-12-03T00:55:10.429Z,948.36908
2018-12-03T00:55:17.191Z,948.35943
2018-12-03T00:55:23.945Z,948.38977
2018-12-03T00:55:30.692Z,948.39624
2018-12-03T00:55:37.453Z,948.41687
2018-12-03T00:55:44.140Z,948.43554
2018-12-03T00:55:50.859Z,948.41381
2018-12-03T00:55:57.544Z,948.44091
2018-12-03T00:56:04.285Z,948.4436
2018-12-03T00:56:11.012Z,948.39294
2018-12-03T00:56:17.742Z,948.40521
2018-12-03T00:56:24.446Z,948.40576
2018-12-03T00:56:31.155Z,948.43768
2018-12-03T00:56:37.864Z,948.46313
2018-12-03T00:56:44.589Z,948.38342
2018-12-03T00:56:51.258Z,948.44561
2018-12-03T00:56:57.984Z,948.47924
2018-12-03T00:57:04.698Z,948.44244
2018-12-03T00:57:11.379Z,948.45739
2018-12-03T00:57:18.065Z,948.41272
2018-12-03T00:57:24.775Z,948.41272
2018-12-03T00:57:31.532Z,948.44848
2018-12-03T00:57:38.313Z,948.42553
2018-12-03T00:57:45.050Z,948.42779
2018-12-03T00:57:53.801Z,948.41961
2018-12-03T00:58:00.542Z,948.41821
2018-12-03T00:58:07.300Z,948.40264
2018-12-03T00:58:14.033Z,948.4422
2018-12-03T00:58:20.781Z,948.42779
2018-12-03T00:58:28.454Z,948.40063
2018-12-03T00:58:35.161Z,948.43158
2018-12-03T00:58:41.871Z,948.41131
2018-12-03T00:58:48.545Z,948.41015
2018-12-03T00:58:55.236Z,948.42688
2018-12-03T00:59:01.955Z,948.41247
2018-12-03T00:59:08.688Z,948.40454
2018-12-03T00:59:15.448Z,948.4104
2018-12-03T00:59:22.152Z,948.39544
2018-12-03T00:59:28.916Z,948.39813
2018-12-03T00:59:35.616Z,948.44592
2018-12-03T00:59:42.396Z,948.43438
2018-12-03T00:59:49.089Z,948.41406
2018-12-03T00:59:55.866Z,948.43438
2018-12-03T01:00:03.573Z,948.44757
2018-12-03T01:00:10.336Z,948.40765
2018-12-03T01:00:17.056Z,948.38159
2018-12-03T01:00:24.791Z,948.39263
2018-12-03T01:00:31.562Z,948.39544
2018-12-03T01:00:38.306Z,948.45611
2018-12-03T01:00:46.597Z,948.40185
2018-12-03T01:00:55.073Z,948.37896
2018-12-03T01:01:01.870Z,948.42962
2018-12-03T01:01:08.599Z,948.40997
2018-12-03T01:01:15.317Z,948.43713
2018-12-03T01:01:22.037Z,948.43548
2018-12-03T01:01:29.389Z,948.3908
2018-12-03T01:01:36.181Z,948.37921
2018-12-03T01:01:42.913Z,948.40203
2018-12-03T01:01:49.609Z,948.37481
2018-12-03T01:01:56.264Z,948.41632
2018-12-03T01:02:02.952Z,948.42974
2018-12-03T01:02:09.648Z,948.39672
2018-12-03T01:02:16.379Z,948.36639
2018-12-03T01:02:23.064Z,948.37982
2018-12-03T01:02:29.795Z,948.36596
2018-12-03T01:02:36.472Z,948.37719
2018-12-03T01:02:43.226Z,948.36865
2018-12-03T01:02:49.974Z,948.35705
2018-12-03T01:02:56.702Z,948.37616
2018-12-03T01:03:03.390Z,948.37982
2018-12-03T01:03:11.129Z,948.34588
2018-12-03T01:03:17.835Z,948.32989
2018-12-03T01:03:24.519Z,948.30419
2018-12-03T01:03:32.225Z,948.35229
2018-12-03T01:03:38.918Z,948.27252
2018-12-03T01:03:45.604Z,948.38397
2018-12-03T01:03:52.365Z,948.32196
2018-12-03T01:03:59.100Z,948.34094
2018-12-03T01:04:05.775Z,948.34411
2018-12-03T01:04:12.468Z,948.3117
2018-12-03T01:04:19.180Z,948.33252
2018-12-03T01:04:25.859Z,948.35858
2018-12-03T01:04:32.595Z,948.32562
2018-12-03T01:04:39.348Z,948.32135
2018-12-03T01:04:46.106Z,948.33844
2018-12-03T01:04:52.877Z,948.34478
2018-12-03T01:05:00.395Z,948.32653
2018-12-03T01:05:07.182Z,948.3352
2018-12-03T01:05:14.963Z,948.34997
2018-12-03T01:05:22.665Z,948.36187
2018-12-03T01:05:29.357Z,948.34796
2018-12-03T01:05:36.036Z,948.38421
2018-12-03T01:05:42.813Z,948.36187
2018-12-03T01:05:49.503Z,948.32836
2018-12-03T01:05:56.258Z,948.31127
2018-12-03T01:06:04.065Z,948.34906
2018-12-03T01:06:10.825Z,948.40173
2018-12-03T01:06:17.574Z,948.41357
2018-12-03T01:06:24.267Z,948.41125
2018-12-03T01:06:30.904Z,948.37249
2018-12-03T01:06:37.680Z,948.37622
2018-12-03T01:06:46.340Z,948.36297
2018-12-03T01:06:53.083Z,948.37139
2018-12-03T01:07:00.758Z,948.37048
2018-12-03T01:07:07.496Z,948.39062
2018-12-03T01:07:14.168Z,948.36828
2018-12-03T01:07:20.850Z,948.36499
2018-12-03T01:07:27.605Z,948.3753
2018-12-03T01:07:34.366Z,948.35345
2018-12-03T01:07:42.084Z,948.34814
2018-12-03T01:07:48.794Z,948.34857
2018-12-03T01:07:56.188Z,948.33154
2018-12-03T01:08:02.935Z,948.32312
2018-12-03T01:08:11.657Z,948.33538
2018-12-03T01:08:18.380Z,948.33422
2018-12-03T01:08:26.138Z,948.33953
2018-12-03T01:08:33.838Z,948.3338
2018-12-03T01:08:40.570Z,948.34606
2018-12-03T01:08:47.350Z,948.33111
2018-12-03T01:08:54.117Z,948.33221
2018-12-03T01:09:01.506Z,948.36889
2018-12-03T01:09:08.264Z,948.38641
2018-12-03T01:09:16.004Z,948.31518
2018-12-03T01:09:22.698Z,948.35455
2018-12-03T01:09:29.475Z,948.36248
2018-12-03T01:09:36.113Z,948.3897
2018-12-03T01:09:42.870Z,948.32623
2018-12-03T01:09:49.594Z,948.32104
2018-12-03T01:09:56.280Z,948.35455
2018-12-03T01:10:02.959Z,948.31091
2018-12-03T01:10:09.706Z,948.3507
2018-12-03T01:10:17.402Z,948.37323
2018-12-03T01:10:24.063Z,948.36688
2018-12-03T01:10:31.708Z,948.38067
2018-12-03T01:10:38.470Z,948.37963
2018-12-03T01:10:45.168Z,948.40142
2018-12-03T01:10:51.907Z,948.35821
2018-12-03T01:10:58.640Z,948.35296
2018-12-03T01:11:05.369Z,948.40399
2018-12-03T01:11:12.042Z,948.427
2018-12-03T01:11:18.715Z,948.39556
2018-12-03T01:11:25.482Z,948.38281
2018-12-03T01:11:32.178Z,948.40142
2018-12-03T01:11:38.900Z,948.38482
2018-12-03T01:11:45.592Z,948.38708
2018-12-03T01:11:52.286Z,948.36999
2018-12-03T01:11:58.967Z,948.37963
2018-12-03T01:12:05.705Z,948.35656
2018-12-03T01:12:12.400Z,948.37048
2018-12-03T01:12:19.166Z,948.38806
2018-12-03T01:12:26.054Z,948.39923
2018-12-03T01:12:33.773Z,948.39392
2018-12-03T01:12:40.501Z,948.42358
2018-12-03T01:12:47.217Z,948.39556
2018-12-03T01:12:53.933Z,948.41955
2018-12-03T01:13:00.611Z,948.38806
2018-12-03T01:13:07.331Z,948.41626
2018-12-03T01:13:14.014Z,948.39282
2018-12-03T01:13:20.701Z,948.40075
2018-12-03T01:13:27.413Z,948.36572
2018-12-03T01:13:34.105Z,948.40197
2018-12-03T01:13:40.865Z,948.41406
2018-12-03T01:13:47.610Z,948.41955
2018-12-03T01:13:54.290Z,948.38592
2018-12-03T01:14:00.981Z,948.37249
2018-12-03T01:14:08.669Z,948.3897
2018-12-03T01:14:16.391Z,948.39282
2018-12-03T01:14:23.155Z,948.39331
2018-12-03T01:14:29.897Z,948.44866
2018-12-03T01:14:36.641Z,948.36346
2018-12-03T01:14:43.338Z,948.34497
2018-12-03T01:14:50.074Z,948.35882
2018-12-03T01:14:56.712Z,948.42108
2018-12-03T01:15:03.426Z,948.41241
2018-12-03T01:15:10.103Z,948.42517
2018-12-03T01:15:16.808Z,948.43158
2018-12-03T01:15:24.559Z,948.47216
2018-12-03T01:15:31.334Z,948.4519
2018-12-03T01:15:38.090Z,948.40173
2018-12-03T01:15:44.864Z,948.44342
2018-12-03T01:15:51.600Z,948.4519
2018-12-03T01:15:58.374Z,948.4375
2018-12-03T01:16:05.132Z,948.42517
2018-12-03T01:16:13.447Z,948.51678
2018-12-03T01:16:20.167Z,948.48529
2018-12-03T01:16:26.939Z,948.46466
2018-12-03T01:16:33.683Z,948.44866
2018-12-03T01:16:41.399Z,948.46826
2018-12-03T01:16:48.034Z,948.47302
2018-12-03T01:16:54.717Z,948.47265
2018-12-03T01:17:01.505Z,948.52642
2018-12-03T01:17:08.151Z,948.48742
2018-12-03T01:17:14.878Z,948.50451
2018-12-03T01:17:21.588Z,948.42791
2018-12-03T01:17:28.290Z,948.44
2018-12-03T01:17:35.043Z,948.43438
2018-12-03T01:17:41.741Z,948.44751
2018-12-03T01:17:48.449Z,948.45666
2018-12-03T01:17:55.207Z,948.45874
2018-12-03T01:18:01.923Z,948.46984
2018-12-03T01:18:08.623Z,948.46142
2018-12-03T01:18:15.368Z,948.44592